sensor_id;sensor_type;location;lat;lon;timestamp;P1;durP1;ratioP1;P2;durP2;ratioP2
27127;SDS011;14660;49.008;8.390;2022-08-01T00:01:48;2.70;;;2.50;;
27127;SDS011;14660;49.008;8.390;2022-08-01T00:04:15;3.80;;;2.33;;
27127;SDS011;14660;49.008;8.390;2022-08-01T00:06:42;4.13;;;2.85;;
27127;SDS011;14660;49.008;8.390;2022-08-01T00:09:09;2.70;;;2.33;;
27127;SDS011;14660;49.008;8.390;2022-08-01T00:11:36;3.97;;;2.88;;
27127;SDS011;14660;49.008;8.390;2022-08-01T00:14:03;3.45;;;2.42;;
27127;SDS011;14660;49.008;8.390;2022-08-01T00:16:30;5.28;;;2.60;;
27127;SDS011;14660;49.008;8.390;2022-08-01T00:18:56;2.53;;;2.33;;
27127;SDS011;14660;49.008;8.390;2022-08-01T00:21:23;4.45;;;2.47;;
27127;SDS011;14660;49.008;8.390;2022-08-01T00:23:50;4.75;;;2.38;;
27127;SDS011;14660;49.008;8.390;2022-08-01T00:26:17;3.15;;;2.60;;
27127;SDS011;14660;49.008;8.390;2022-08-01T00:28:44;3.53;;;3.17;;
27127;SDS011;14660;49.008;8.390;2022-08-01T00:31:11;3.78;;;2.67;;
27127;SDS011;14660;49.008;8.390;2022-08-01T00:33:37;3.92;;;3.03;;
27127;SDS011;14660;49.008;8.390;2022-08-01T00:36:04;6.38;;;2.85;;
27127;SDS011;14660;49.008;8.390;2022-08-01T00:38:31;4.65;;;3.03;;
27127;SDS011;14660;49.008;8.390;2022-08-01T00:40:58;3.33;;;2.97;;
27127;SDS011;14660;49.008;8.390;2022-08-01T00:43:25;5.88;;;2.65;;
27127;SDS011;14660;49.008;8.390;2022-08-01T00:45:51;3.70;;;2.97;;
27127;SDS011;14660;49.008;8.390;2022-08-01T00:48:17;4.00;;;2.63;;
27127;SDS011;14660;49.008;8.390;2022-08-01T00:50:44;5.72;;;2.65;;
27127;SDS011;14660;49.008;8.390;2022-08-01T00:53:12;4.20;;;2.67;;
27127;SDS011;14660;49.008;8.390;2022-08-01T00:55:39;5.65;;;2.83;;
27127;SDS011;14660;49.008;8.390;2022-08-01T00:58:06;3.90;;;2.83;;
27127;SDS011;14660;49.008;8.390;2022-08-01T01:00:34;5.03;;;2.90;;
27127;SDS011;14660;49.008;8.390;2022-08-01T01:03:01;4.22;;;2.97;;
27127;SDS011;14660;49.008;8.390;2022-08-01T01:05:29;4.18;;;2.75;;
27127;SDS011;14660;49.008;8.390;2022-08-01T01:14:04;4.50;;;3.20;;
27127;SDS011;14660;49.008;8.390;2022-08-01T01:16:35;7.93;;;3.28;;
27127;SDS011;14660;49.008;8.390;2022-08-01T01:19:04;5.85;;;4.13;;
27127;SDS011;14660;49.008;8.390;2022-08-01T01:30:53;5.53;;;3.25;;
27127;SDS011;14660;49.008;8.390;2022-08-01T01:33:24;5.60;;;2.95;;
27127;SDS011;14660;49.008;8.390;2022-08-01T01:35:57;3.25;;;2.95;;
27127;SDS011;14660;49.008;8.390;2022-08-01T01:38:32;4.18;;;3.20;;
27127;SDS011;14660;49.008;8.390;2022-08-01T01:41:03;5.22;;;3.17;;
27127;SDS011;14660;49.008;8.390;2022-08-01T01:43:31;3.58;;;2.97;;
27127;SDS011;14660;49.008;8.390;2022-08-01T01:45:58;5.32;;;3.40;;
27127;SDS011;14660;49.008;8.390;2022-08-01T01:48:25;4.85;;;3.00;;
27127;SDS011;14660;49.008;8.390;2022-08-01T01:50:52;4.55;;;2.92;;
27127;SDS011;14660;49.008;8.390;2022-08-01T01:53:21;3.90;;;2.80;;
27127;SDS011;14660;49.008;8.390;2022-08-01T01:55:50;4.03;;;2.90;;
27127;SDS011;14660;49.008;8.390;2022-08-01T01:58:20;5.88;;;3.10;;
27127;SDS011;14660;49.008;8.390;2022-08-01T02:00:48;4.38;;;3.55;;
27127;SDS011;14660;49.008;8.390;2022-08-01T02:03:17;4.43;;;2.97;;
27127;SDS011;14660;49.008;8.390;2022-08-01T02:05:46;4.45;;;3.17;;
27127;SDS011;14660;49.008;8.390;2022-08-01T02:08:15;7.47;;;3.22;;
27127;SDS011;14660;49.008;8.390;2022-08-01T02:10:44;5.35;;;2.60;;
27127;SDS011;14660;49.008;8.390;2022-08-01T02:13:34;3.40;;;3.05;;
27127;SDS011;14660;49.008;8.390;2022-08-01T02:16:04;4.63;;;3.05;;
27127;SDS011;14660;49.008;8.390;2022-08-01T02:18:32;4.20;;;3.10;;
27127;SDS011;14660;49.008;8.390;2022-08-01T02:20:59;5.53;;;3.22;;
27127;SDS011;14660;49.008;8.390;2022-08-01T02:23:31;4.75;;;3.25;;
27127;SDS011;14660;49.008;8.390;2022-08-01T02:26:00;4.25;;;3.03;;
27127;SDS011;14660;49.008;8.390;2022-08-01T02:28:36;5.28;;;3.08;;
27127;SDS011;14660;49.008;8.390;2022-08-01T02:31:11;3.45;;;2.75;;
27127;SDS011;14660;49.008;8.390;2022-08-01T02:33:41;5.10;;;2.97;;
27127;SDS011;14660;49.008;8.390;2022-08-01T02:36:11;4.32;;;2.80;;
27127;SDS011;14660;49.008;8.390;2022-08-01T02:38:44;3.60;;;2.80;;
27127;SDS011;14660;49.008;8.390;2022-08-01T02:41:13;3.70;;;3.00;;
27127;SDS011;14660;49.008;8.390;2022-08-01T02:43:46;3.30;;;2.90;;
27127;SDS011;14660;49.008;8.390;2022-08-01T02:46:59;5.45;;;3.08;;
27127;SDS011;14660;49.008;8.390;2022-08-01T02:49:10;3.45;;;3.00;;
27127;SDS011;14660;49.008;8.390;2022-08-01T02:51:39;4.28;;;3.20;;
27127;SDS011;14660;49.008;8.390;2022-08-01T02:54:07;3.95;;;3.08;;
27127;SDS011;14660;49.008;8.390;2022-08-01T02:56:36;3.42;;;3.13;;
27127;SDS011;14660;49.008;8.390;2022-08-01T02:59:05;3.50;;;3.20;;
27127;SDS011;14660;49.008;8.390;2022-08-01T03:01:34;4.50;;;3.40;;
27127;SDS011;14660;49.008;8.390;2022-08-01T03:04:03;3.50;;;3.10;;
27127;SDS011;14660;49.008;8.390;2022-08-01T03:06:32;3.92;;;3.15;;
27127;SDS011;14660;49.008;8.390;2022-08-01T03:09:00;4.75;;;3.58;;
27127;SDS011;14660;49.008;8.390;2022-08-01T03:11:29;3.70;;;2.83;;
27127;SDS011;14660;49.008;8.390;2022-08-01T03:13:59;5.10;;;3.33;;
27127;SDS011;14660;49.008;8.390;2022-08-01T03:16:28;4.75;;;3.42;;
27127;SDS011;14660;49.008;8.390;2022-08-01T03:18:57;3.65;;;3.13;;
27127;SDS011;14660;49.008;8.390;2022-08-01T03:21:27;3.50;;;3.20;;
27127;SDS011;14660;49.008;8.390;2022-08-01T03:23:55;4.90;;;4.00;;
27127;SDS011;14660;49.008;8.390;2022-08-01T03:26:26;4.45;;;2.78;;
27127;SDS011;14660;49.008;8.390;2022-08-01T03:28:56;4.18;;;3.55;;
27127;SDS011;14660;49.008;8.390;2022-08-01T03:31:25;2.97;;;2.78;;
27127;SDS011;14660;49.008;8.390;2022-08-01T03:33:53;3.72;;;3.05;;
27127;SDS011;14660;49.008;8.390;2022-08-01T03:36:21;4.88;;;3.22;;
27127;SDS011;14660;49.008;8.390;2022-08-01T03:38:53;4.82;;;3.38;;
27127;SDS011;14660;49.008;8.390;2022-08-01T03:41:26;5.15;;;3.25;;
27127;SDS011;14660;49.008;8.390;2022-08-01T03:44:07;4.93;;;3.73;;
27127;SDS011;14660;49.008;8.390;2022-08-01T03:46:49;5.53;;;3.50;;
27127;SDS011;14660;49.008;8.390;2022-08-01T03:49:23;5.25;;;3.58;;
27127;SDS011;14660;49.008;8.390;2022-08-01T03:51:56;3.30;;;2.78;;
27127;SDS011;14660;49.008;8.390;2022-08-01T03:54:25;3.85;;;3.42;;
27127;SDS011;14660;49.008;8.390;2022-08-01T03:57:01;5.32;;;3.83;;
27127;SDS011;14660;49.008;8.390;2022-08-01T03:59:29;3.78;;;3.20;;
27127;SDS011;14660;49.008;8.390;2022-08-01T04:01:57;3.72;;;3.10;;
27127;SDS011;14660;49.008;8.390;2022-08-01T04:04:25;3.15;;;2.90;;
27127;SDS011;14660;49.008;8.390;2022-08-01T04:06:52;4.40;;;3.40;;
27127;SDS011;14660;49.008;8.390;2022-08-01T04:09:20;7.35;;;4.03;;
27127;SDS011;14660;49.008;8.390;2022-08-01T04:11:47;7.00;;;3.75;;
27127;SDS011;14660;49.008;8.390;2022-08-01T04:14:15;6.32;;;3.22;;
27127;SDS011;14660;49.008;8.390;2022-08-01T04:16:42;5.70;;;3.45;;
27127;SDS011;14660;49.008;8.390;2022-08-01T04:19:09;4.75;;;4.07;;
27127;SDS011;14660;49.008;8.390;2022-08-01T04:21:36;4.07;;;3.40;;
27127;SDS011;14660;49.008;8.390;2022-08-01T04:24:06;4.97;;;3.70;;
27127;SDS011;14660;49.008;8.390;2022-08-01T04:26:39;3.85;;;3.40;;
27127;SDS011;14660;49.008;8.390;2022-08-01T04:29:09;6.32;;;3.90;;
27127;SDS011;14660;49.008;8.390;2022-08-01T04:31:38;4.70;;;3.88;;
27127;SDS011;14660;49.008;8.390;2022-08-01T04:34:10;6.28;;;3.88;;
27127;SDS011;14660;49.008;8.390;2022-08-01T04:36:40;5.63;;;3.72;;
27127;SDS011;14660;49.008;8.390;2022-08-01T04:39:08;5.80;;;4.05;;
27127;SDS011;14660;49.008;8.390;2022-08-01T04:41:36;3.95;;;3.55;;
27127;SDS011;14660;49.008;8.390;2022-08-01T04:44:04;7.05;;;3.88;;
27127;SDS011;14660;49.008;8.390;2022-08-01T04:46:31;8.70;;;4.50;;
27127;SDS011;14660;49.008;8.390;2022-08-01T04:49:00;4.82;;;3.75;;
27127;SDS011;14660;49.008;8.390;2022-08-01T04:51:27;3.50;;;3.20;;
27127;SDS011;14660;49.008;8.390;2022-08-01T04:53:55;6.00;;;4.22;;
27127;SDS011;14660;49.008;8.390;2022-08-01T04:56:24;5.63;;;3.60;;
27127;SDS011;14660;49.008;8.390;2022-08-01T04:58:51;5.55;;;3.15;;
27127;SDS011;14660;49.008;8.390;2022-08-01T05:01:38;7.75;;;3.60;;
27127;SDS011;14660;49.008;8.390;2022-08-01T05:04:05;6.07;;;3.70;;
27127;SDS011;14660;49.008;8.390;2022-08-01T05:06:32;6.47;;;3.72;;
27127;SDS011;14660;49.008;8.390;2022-08-01T05:08:58;5.10;;;3.67;;
27127;SDS011;14660;49.008;8.390;2022-08-01T05:11:26;4.35;;;3.38;;
27127;SDS011;14660;49.008;8.390;2022-08-01T05:13:53;6.75;;;3.35;;
27127;SDS011;14660;49.008;8.390;2022-08-01T05:16:20;5.28;;;3.70;;
27127;SDS011;14660;49.008;8.390;2022-08-01T05:18:47;5.07;;;3.50;;
27127;SDS011;14660;49.008;8.390;2022-08-01T05:21:13;5.68;;;3.67;;
27127;SDS011;14660;49.008;8.390;2022-08-01T05:23:40;3.80;;;3.03;;
27127;SDS011;14660;49.008;8.390;2022-08-01T05:26:07;6.47;;;3.70;;
27127;SDS011;14660;49.008;8.390;2022-08-01T05:28:34;7.97;;;3.47;;
27127;SDS011;14660;49.008;8.390;2022-08-01T05:31:02;9.73;;;3.53;;
27127;SDS011;14660;49.008;8.390;2022-08-01T05:33:30;8.15;;;3.65;;
27127;SDS011;14660;49.008;8.390;2022-08-01T05:35:56;4.63;;;3.53;;
27127;SDS011;14660;49.008;8.390;2022-08-01T05:38:23;6.70;;;3.22;;
27127;SDS011;14660;49.008;8.390;2022-08-01T05:40:50;3.97;;;3.60;;
27127;SDS011;14660;49.008;8.390;2022-08-01T05:43:17;5.72;;;3.70;;
27127;SDS011;14660;49.008;8.390;2022-08-01T05:45:44;3.97;;;3.58;;
27127;SDS011;14660;49.008;8.390;2022-08-01T05:48:12;6.00;;;3.03;;
27127;SDS011;14660;49.008;8.390;2022-08-01T05:50:38;4.05;;;2.88;;
27127;SDS011;14660;49.008;8.390;2022-08-01T05:53:06;7.38;;;3.78;;
27127;SDS011;14660;49.008;8.390;2022-08-01T05:55:34;4.30;;;3.25;;
27127;SDS011;14660;49.008;8.390;2022-08-01T05:58:01;5.18;;;3.05;;
27127;SDS011;14660;49.008;8.390;2022-08-01T06:00:29;8.32;;;4.10;;
27127;SDS011;14660;49.008;8.390;2022-08-01T06:02:55;4.85;;;3.00;;
27127;SDS011;14660;49.008;8.390;2022-08-01T06:05:22;6.13;;;3.35;;
27127;SDS011;14660;49.008;8.390;2022-08-01T06:07:49;4.15;;;3.00;;
27127;SDS011;14660;49.008;8.390;2022-08-01T06:10:16;4.53;;;2.65;;
27127;SDS011;14660;49.008;8.390;2022-08-01T06:12:42;3.92;;;3.05;;
27127;SDS011;14660;49.008;8.390;2022-08-01T06:15:09;4.68;;;2.90;;
27127;SDS011;14660;49.008;8.390;2022-08-01T06:17:37;5.28;;;3.17;;
27127;SDS011;14660;49.008;8.390;2022-08-01T06:20:05;4.88;;;3.38;;
27127;SDS011;14660;49.008;8.390;2022-08-01T06:22:32;6.75;;;3.33;;
27127;SDS011;14660;49.008;8.390;2022-08-01T06:25:00;5.97;;;3.17;;
27127;SDS011;14660;49.008;8.390;2022-08-01T06:27:26;4.50;;;2.92;;
27127;SDS011;14660;49.008;8.390;2022-08-01T06:29:54;4.78;;;3.08;;
27127;SDS011;14660;49.008;8.390;2022-08-01T06:32:21;4.30;;;2.35;;
27127;SDS011;14660;49.008;8.390;2022-08-01T06:34:52;6.30;;;3.00;;
27127;SDS011;14660;49.008;8.390;2022-08-01T06:37:20;3.33;;;2.97;;
27127;SDS011;14660;49.008;8.390;2022-08-01T06:39:47;4.82;;;3.10;;
27127;SDS011;14660;49.008;8.390;2022-08-01T06:42:15;4.60;;;3.28;;
27127;SDS011;14660;49.008;8.390;2022-08-01T06:44:42;4.00;;;2.72;;
27127;SDS011;14660;49.008;8.390;2022-08-01T06:47:09;3.33;;;2.63;;
27127;SDS011;14660;49.008;8.390;2022-08-01T06:49:35;6.68;;;2.80;;
27127;SDS011;14660;49.008;8.390;2022-08-01T06:52:02;3.30;;;3.00;;
27127;SDS011;14660;49.008;8.390;2022-08-01T06:54:30;4.22;;;2.85;;
27127;SDS011;14660;49.008;8.390;2022-08-01T06:56:57;5.68;;;2.67;;
27127;SDS011;14660;49.008;8.390;2022-08-01T06:59:24;3.42;;;2.67;;
27127;SDS011;14660;49.008;8.390;2022-08-01T07:01:50;3.25;;;2.42;;
27127;SDS011;14660;49.008;8.390;2022-08-01T07:04:17;3.15;;;2.38;;
27127;SDS011;14660;49.008;8.390;2022-08-01T07:06:44;4.40;;;2.50;;
27127;SDS011;14660;49.008;8.390;2022-08-01T07:09:11;3.75;;;2.90;;
27127;SDS011;14660;49.008;8.390;2022-08-01T07:11:36;4.15;;;2.38;;
27127;SDS011;14660;49.008;8.390;2022-08-01T07:14:03;5.80;;;2.38;;
27127;SDS011;14660;49.008;8.390;2022-08-01T07:16:30;5.13;;;2.40;;
27127;SDS011;14660;49.008;8.390;2022-08-01T07:18:56;4.55;;;2.88;;
27127;SDS011;14660;49.008;8.390;2022-08-01T07:21:23;6.05;;;2.90;;
27127;SDS011;14660;49.008;8.390;2022-08-01T07:23:50;4.65;;;2.80;;
27127;SDS011;14660;49.008;8.390;2022-08-01T07:26:16;3.63;;;2.17;;
27127;SDS011;14660;49.008;8.390;2022-08-01T07:28:43;6.53;;;2.72;;
27127;SDS011;14660;49.008;8.390;2022-08-01T07:31:10;5.18;;;2.22;;
27127;SDS011;14660;49.008;8.390;2022-08-01T07:33:37;3.85;;;2.30;;
27127;SDS011;14660;49.008;8.390;2022-08-01T07:36:03;3.17;;;2.28;;
27127;SDS011;14660;49.008;8.390;2022-08-01T07:38:30;3.58;;;2.45;;
27127;SDS011;14660;49.008;8.390;2022-08-01T07:40:57;4.15;;;2.70;;
27127;SDS011;14660;49.008;8.390;2022-08-01T07:43:24;5.00;;;2.88;;
27127;SDS011;14660;49.008;8.390;2022-08-01T07:45:49;4.13;;;3.10;;
27127;SDS011;14660;49.008;8.390;2022-08-01T07:48:18;6.13;;;4.07;;
27127;SDS011;14660;49.008;8.390;2022-08-01T07:50:47;4.95;;;3.42;;
27127;SDS011;14660;49.008;8.390;2022-08-01T07:53:13;5.72;;;3.88;;
27127;SDS011;14660;49.008;8.390;2022-08-01T07:55:41;6.10;;;3.65;;
27127;SDS011;14660;49.008;8.390;2022-08-01T07:58:08;3.97;;;2.92;;
27127;SDS011;14660;49.008;8.390;2022-08-01T08:00:34;3.65;;;3.33;;
27127;SDS011;14660;49.008;8.390;2022-08-01T08:03:02;7.45;;;3.30;;
27127;SDS011;14660;49.008;8.390;2022-08-01T08:05:28;5.97;;;3.30;;
27127;SDS011;14660;49.008;8.390;2022-08-01T08:07:55;9.02;;;2.67;;
27127;SDS011;14660;49.008;8.390;2022-08-01T08:10:22;2.40;;;2.08;;
27127;SDS011;14660;49.008;8.390;2022-08-01T08:12:49;2.75;;;1.60;;
27127;SDS011;14660;49.008;8.390;2022-08-01T08:15:16;2.08;;;1.60;;
27127;SDS011;14660;49.008;8.390;2022-08-01T08:17:42;2.67;;;1.25;;
27127;SDS011;14660;49.008;8.390;2022-08-01T08:20:09;3.53;;;2.20;;
27127;SDS011;14660;49.008;8.390;2022-08-01T08:22:36;2.22;;;1.35;;
27127;SDS011;14660;49.008;8.390;2022-08-01T08:25:04;2.08;;;1.50;;
27127;SDS011;14660;49.008;8.390;2022-08-01T08:27:32;2.35;;;1.38;;
27127;SDS011;14660;49.008;8.390;2022-08-01T08:29:58;3.72;;;1.48;;
27127;SDS011;14660;49.008;8.390;2022-08-01T08:32:27;5.85;;;1.40;;
27127;SDS011;14660;49.008;8.390;2022-08-01T08:34:54;4.72;;;2.53;;
27127;SDS011;14660;49.008;8.390;2022-08-01T08:37:20;3.15;;;1.50;;
27127;SDS011;14660;49.008;8.390;2022-08-01T08:39:48;2.25;;;1.48;;
27127;SDS011;14660;49.008;8.390;2022-08-01T08:42:15;3.00;;;1.83;;
27127;SDS011;14660;49.008;8.390;2022-08-01T08:44:42;4.47;;;1.77;;
27127;SDS011;14660;49.008;8.390;2022-08-01T08:47:08;2.35;;;1.35;;
27127;SDS011;14660;49.008;8.390;2022-08-01T08:49:38;2.63;;;1.30;;
27127;SDS011;14660;49.008;8.390;2022-08-01T08:52:05;2.40;;;1.40;;
27127;SDS011;14660;49.008;8.390;2022-08-01T08:54:32;2.10;;;1.08;;
27127;SDS011;14660;49.008;8.390;2022-08-01T08:57:00;3.35;;;1.40;;
27127;SDS011;14660;49.008;8.390;2022-08-01T08:59:27;2.08;;;1.33;;
27127;SDS011;14660;49.008;8.390;2022-08-01T09:01:54;1.73;;;1.20;;
27127;SDS011;14660;49.008;8.390;2022-08-01T09:04:22;3.88;;;1.63;;
27127;SDS011;14660;49.008;8.390;2022-08-01T09:06:49;2.45;;;1.45;;
27127;SDS011;14660;49.008;8.390;2022-08-01T09:09:17;1.60;;;1.10;;
27127;SDS011;14660;49.008;8.390;2022-08-01T09:11:44;2.17;;;1.15;;
27127;SDS011;14660;49.008;8.390;2022-08-01T09:17:08;3.63;;;1.10;;
27127;SDS011;14660;49.008;8.390;2022-08-01T09:22:23;1.10;;;0.90;;
27127;SDS011;14660;49.008;8.390;2022-08-01T09:27:37;2.38;;;1.30;;
27127;SDS011;14660;49.008;8.390;2022-08-01T09:30:09;1.80;;;1.35;;
27127;SDS011;14660;49.008;8.390;2022-08-01T09:32:54;1.30;;;1.20;;
27127;SDS011;14660;49.008;8.390;2022-08-01T09:35:30;1.42;;;1.33;;
27127;SDS011;14660;49.008;8.390;2022-08-01T09:38:19;3.10;;;1.02;;
27127;SDS011;14660;49.008;8.390;2022-08-01T09:43:33;3.58;;;1.40;;
27127;SDS011;14660;49.008;8.390;2022-08-01T09:46:10;2.40;;;1.30;;
27127;SDS011;14660;49.008;8.390;2022-08-01T09:48:38;2.88;;;1.30;;
27127;SDS011;14660;49.008;8.390;2022-08-01T09:51:08;4.68;;;1.58;;
27127;SDS011;14660;49.008;8.390;2022-08-01T09:53:46;5.20;;;1.48;;
27127;SDS011;14660;49.008;8.390;2022-08-01T09:56:14;2.65;;;1.52;;
27127;SDS011;14660;49.008;8.390;2022-08-01T09:58:50;2.38;;;1.20;;
27127;SDS011;14660;49.008;8.390;2022-08-01T10:01:20;4.70;;;1.40;;
27127;SDS011;14660;49.008;8.390;2022-08-01T10:04:10;1.65;;;1.20;;
27127;SDS011;14660;49.008;8.390;2022-08-01T10:06:38;2.35;;;1.60;;
27127;SDS011;14660;49.008;8.390;2022-08-01T10:09:06;2.05;;;1.27;;
27127;SDS011;14660;49.008;8.390;2022-08-01T10:11:33;2.80;;;1.38;;
27127;SDS011;14660;49.008;8.390;2022-08-01T10:14:05;1.33;;;1.10;;
27127;SDS011;14660;49.008;8.390;2022-08-01T10:16:33;8.15;;;1.80;;
27127;SDS011;14660;49.008;8.390;2022-08-01T10:19:03;3.90;;;1.65;;
27127;SDS011;14660;49.008;8.390;2022-08-01T10:21:33;3.63;;;1.30;;
27127;SDS011;14660;49.008;8.390;2022-08-01T10:24:01;1.98;;;1.23;;
27127;SDS011;14660;49.008;8.390;2022-08-01T10:26:28;1.75;;;1.35;;
27127;SDS011;14660;49.008;8.390;2022-08-01T10:28:58;2.28;;;1.38;;
27127;SDS011;14660;49.008;8.390;2022-08-01T10:31:25;1.63;;;1.30;;
27127;SDS011;14660;49.008;8.390;2022-08-01T10:33:52;3.05;;;1.20;;
27127;SDS011;14660;49.008;8.390;2022-08-01T10:36:22;3.20;;;1.50;;
27127;SDS011;14660;49.008;8.390;2022-08-01T10:38:50;3.30;;;2.20;;
27127;SDS011;14660;49.008;8.390;2022-08-01T10:41:19;1.48;;;1.23;;
27127;SDS011;14660;49.008;8.390;2022-08-01T10:43:45;2.70;;;2.10;;
27127;SDS011;14660;49.008;8.390;2022-08-01T10:46:12;4.82;;;2.00;;
27127;SDS011;14660;49.008;8.390;2022-08-01T10:51:35;2.00;;;1.23;;
27127;SDS011;14660;49.008;8.390;2022-08-01T10:54:05;2.13;;;1.92;;
27127;SDS011;14660;49.008;8.390;2022-08-01T10:56:42;2.22;;;1.73;;
27127;SDS011;14660;49.008;8.390;2022-08-01T11:02:01;3.13;;;1.60;;
27127;SDS011;14660;49.008;8.390;2022-08-01T11:04:33;2.25;;;1.55;;
27127;SDS011;14660;49.008;8.390;2022-08-01T11:07:20;3.22;;;1.67;;
27127;SDS011;14660;49.008;8.390;2022-08-01T11:10:00;2.30;;;1.77;;
27127;SDS011;14660;49.008;8.390;2022-08-01T11:12:54;1.63;;;1.23;;
27127;SDS011;14660;49.008;8.390;2022-08-01T11:15:22;1.58;;;1.48;;
27127;SDS011;14660;49.008;8.390;2022-08-01T11:17:53;1.80;;;1.48;;
27127;SDS011;14660;49.008;8.390;2022-08-01T11:23:20;1.67;;;1.52;;
27127;SDS011;14660;49.008;8.390;2022-08-01T11:33:49;2.53;;;2.17;;
27127;SDS011;14660;49.008;8.390;2022-08-01T11:38:49;2.80;;;1.70;;
27127;SDS011;14660;49.008;8.390;2022-08-01T11:55:11;5.53;;;2.10;;
27127;SDS011;14660;49.008;8.390;2022-08-01T11:57:39;2.30;;;1.40;;
27127;SDS011;14660;49.008;8.390;2022-08-01T12:03:11;2.33;;;1.48;;
27127;SDS011;14660;49.008;8.390;2022-08-01T12:05:37;2.42;;;1.90;;
27127;SDS011;14660;49.008;8.390;2022-08-01T12:08:04;4.57;;;1.67;;
27127;SDS011;14660;49.008;8.390;2022-08-01T12:10:33;2.13;;;1.60;;
27127;SDS011;14660;49.008;8.390;2022-08-01T12:13:05;1.73;;;1.60;;
27127;SDS011;14660;49.008;8.390;2022-08-01T12:15:34;2.03;;;1.60;;
27127;SDS011;14660;49.008;8.390;2022-08-01T12:18:02;2.38;;;1.65;;
27127;SDS011;14660;49.008;8.390;2022-08-01T12:20:34;2.75;;;1.77;;
27127;SDS011;14660;49.008;8.390;2022-08-01T12:23:03;7.15;;;2.00;;
27127;SDS011;14660;49.008;8.390;2022-08-01T12:25:33;3.33;;;1.50;;
27127;SDS011;14660;49.008;8.390;2022-08-01T12:28:02;2.17;;;1.98;;
27127;SDS011;14660;49.008;8.390;2022-08-01T12:30:30;1.80;;;1.45;;
27127;SDS011;14660;49.008;8.390;2022-08-01T12:33:01;3.63;;;1.80;;
27127;SDS011;14660;49.008;8.390;2022-08-01T12:35:30;4.13;;;1.65;;
27127;SDS011;14660;49.008;8.390;2022-08-01T12:38:03;2.25;;;1.60;;
27127;SDS011;14660;49.008;8.390;2022-08-01T12:40:40;3.17;;;1.50;;
27127;SDS011;14660;49.008;8.390;2022-08-01T12:43:09;3.17;;;1.60;;
27127;SDS011;14660;49.008;8.390;2022-08-01T12:45:39;5.70;;;1.83;;
27127;SDS011;14660;49.008;8.390;2022-08-01T12:48:10;3.60;;;2.50;;
27127;SDS011;14660;49.008;8.390;2022-08-01T12:50:39;1.73;;;1.60;;
27127;SDS011;14660;49.008;8.390;2022-08-01T12:53:08;1.90;;;1.70;;
27127;SDS011;14660;49.008;8.390;2022-08-01T12:55:44;4.22;;;1.60;;
27127;SDS011;14660;49.008;8.390;2022-08-01T12:58:13;2.22;;;1.65;;
27127;SDS011;14660;49.008;8.390;2022-08-01T13:00:42;1.70;;;1.40;;
27127;SDS011;14660;49.008;8.390;2022-08-01T13:05:56;2.92;;;1.40;;
27127;SDS011;14660;49.008;8.390;2022-08-01T13:11:12;2.17;;;1.58;;
27127;SDS011;14660;49.008;8.390;2022-08-01T13:16:26;1.80;;;1.10;;
27127;SDS011;14660;49.008;8.390;2022-08-01T13:18:54;2.38;;;1.13;;
27127;SDS011;14660;49.008;8.390;2022-08-01T13:27:05;3.78;;;1.20;;
27127;SDS011;14660;49.008;8.390;2022-08-01T13:32:19;2.08;;;1.20;;
27127;SDS011;14660;49.008;8.390;2022-08-01T13:34:47;1.30;;;1.10;;
27127;SDS011;14660;49.008;8.390;2022-08-01T13:37:14;2.10;;;1.17;;
27127;SDS011;14660;49.008;8.390;2022-08-01T13:39:43;2.00;;;1.42;;
27127;SDS011;14660;49.008;8.390;2022-08-01T13:42:11;3.45;;;1.20;;
27127;SDS011;14660;49.008;8.390;2022-08-01T13:44:38;1.30;;;1.13;;
27127;SDS011;14660;49.008;8.390;2022-08-01T13:47:06;1.10;;;1.00;;
27127;SDS011;14660;49.008;8.390;2022-08-01T13:49:34;1.10;;;1.00;;
27127;SDS011;14660;49.008;8.390;2022-08-01T13:52:01;1.65;;;1.17;;
27127;SDS011;14660;49.008;8.390;2022-08-01T13:54:28;2.83;;;1.15;;
27127;SDS011;14660;49.008;8.390;2022-08-01T13:56:55;1.38;;;0.90;;
27127;SDS011;14660;49.008;8.390;2022-08-01T13:59:21;1.23;;;0.93;;
27127;SDS011;14660;49.008;8.390;2022-08-01T14:01:48;0.95;;;0.80;;
27127;SDS011;14660;49.008;8.390;2022-08-01T14:04:15;1.95;;;1.05;;
27127;SDS011;14660;49.008;8.390;2022-08-01T14:06:42;4.03;;;1.50;;
27127;SDS011;14660;49.008;8.390;2022-08-01T14:09:10;2.20;;;1.08;;
27127;SDS011;14660;49.008;8.390;2022-08-01T14:11:37;2.65;;;1.10;;
27127;SDS011;14660;49.008;8.390;2022-08-01T14:14:04;5.38;;;1.10;;
27127;SDS011;14660;49.008;8.390;2022-08-01T14:16:31;2.67;;;1.00;;
27127;SDS011;14660;49.008;8.390;2022-08-01T14:18:58;1.30;;;0.93;;
27127;SDS011;14660;49.008;8.390;2022-08-01T14:21:24;1.58;;;1.02;;
27127;SDS011;14660;49.008;8.390;2022-08-01T14:23:51;3.70;;;0.90;;
27127;SDS011;14660;49.008;8.390;2022-08-01T14:26:18;1.40;;;1.00;;
27127;SDS011;14660;49.008;8.390;2022-08-01T14:28:45;1.55;;;0.80;;
27127;SDS011;14660;49.008;8.390;2022-08-01T14:31:12;2.30;;;0.65;;
27127;SDS011;14660;49.008;8.390;2022-08-01T14:33:39;1.88;;;1.05;;
27127;SDS011;14660;49.008;8.390;2022-08-01T14:36:06;1.92;;;0.77;;
27127;SDS011;14660;49.008;8.390;2022-08-01T14:38:33;1.10;;;0.90;;
27127;SDS011;14660;49.008;8.390;2022-08-01T14:41:00;1.90;;;0.90;;
27127;SDS011;14660;49.008;8.390;2022-08-01T14:43:29;1.15;;;0.77;;
27127;SDS011;14660;49.008;8.390;2022-08-01T14:45:58;1.27;;;0.90;;
27127;SDS011;14660;49.008;8.390;2022-08-01T14:48:25;2.45;;;1.08;;
27127;SDS011;14660;49.008;8.390;2022-08-01T14:50:52;2.38;;;1.10;;
27127;SDS011;14660;49.008;8.390;2022-08-01T14:53:19;2.22;;;0.98;;
27127;SDS011;14660;49.008;8.390;2022-08-01T14:55:46;1.23;;;1.13;;
27127;SDS011;14660;49.008;8.390;2022-08-01T14:58:13;2.03;;;0.90;;
27127;SDS011;14660;49.008;8.390;2022-08-01T15:00:40;1.58;;;0.95;;
27127;SDS011;14660;49.008;8.390;2022-08-01T15:03:07;1.75;;;0.77;;
27127;SDS011;14660;49.008;8.390;2022-08-01T15:05:34;1.65;;;0.93;;
27127;SDS011;14660;49.008;8.390;2022-08-01T15:08:02;2.47;;;1.10;;
27127;SDS011;14660;49.008;8.390;2022-08-01T15:10:31;2.58;;;1.10;;
27127;SDS011;14660;49.008;8.390;2022-08-01T15:12:58;3.88;;;1.33;;
27127;SDS011;14660;49.008;8.390;2022-08-01T15:15:27;2.22;;;0.98;;
27127;SDS011;14660;49.008;8.390;2022-08-01T15:17:55;2.60;;;0.93;;
27127;SDS011;14660;49.008;8.390;2022-08-01T15:20:22;3.08;;;1.00;;
27127;SDS011;14660;49.008;8.390;2022-08-01T15:22:49;8.13;;;1.00;;
27127;SDS011;14660;49.008;8.390;2022-08-01T15:25:16;1.67;;;0.98;;
27127;SDS011;14660;49.008;8.390;2022-08-01T15:27:43;3.95;;;1.10;;
27127;SDS011;14660;49.008;8.390;2022-08-01T15:30:10;1.63;;;1.10;;
27127;SDS011;14660;49.008;8.390;2022-08-01T15:32:37;2.95;;;1.10;;
27127;SDS011;14660;49.008;8.390;2022-08-01T15:35:05;3.42;;;0.68;;
27127;SDS011;14660;49.008;8.390;2022-08-01T15:37:32;4.25;;;1.20;;
27127;SDS011;14660;49.008;8.390;2022-08-01T15:39:59;1.63;;;0.60;;
27127;SDS011;14660;49.008;8.390;2022-08-01T15:42:26;1.60;;;0.90;;
27127;SDS011;14660;49.008;8.390;2022-08-01T15:44:53;3.35;;;1.10;;
27127;SDS011;14660;49.008;8.390;2022-08-01T15:47:20;2.92;;;1.17;;
27127;SDS011;14660;49.008;8.390;2022-08-01T15:49:47;2.80;;;1.40;;
27127;SDS011;14660;49.008;8.390;2022-08-01T15:52:13;7.75;;;0.90;;
27127;SDS011;14660;49.008;8.390;2022-08-01T15:54:40;5.95;;;1.38;;
27127;SDS011;14660;49.008;8.390;2022-08-01T15:57:07;3.58;;;0.98;;
27127;SDS011;14660;49.008;8.390;2022-08-01T15:59:35;1.15;;;0.70;;
27127;SDS011;14660;49.008;8.390;2022-08-01T16:02:01;4.10;;;1.17;;
27127;SDS011;14660;49.008;8.390;2022-08-01T16:04:28;2.20;;;1.00;;
27127;SDS011;14660;49.008;8.390;2022-08-01T16:06:55;2.38;;;1.05;;
27127;SDS011;14660;49.008;8.390;2022-08-01T16:09:21;2.70;;;1.02;;
27127;SDS011;14660;49.008;8.390;2022-08-01T16:11:48;3.78;;;1.35;;
27127;SDS011;14660;49.008;8.390;2022-08-01T16:14:15;1.25;;;1.08;;
27127;SDS011;14660;49.008;8.390;2022-08-01T16:16:42;4.07;;;1.13;;